Dixon, CA

3:23 PM PDT on August 30, 2014 (GMT -0700)
University AP, Davis, CA | Change Station
CLOSE
Current Station
Airport
Location: University AP, Davis, CA,
Elevation: 69 ft
Nearby Weather Stations

Elev 69 ft 38.53 °N, 121.79 °W | Updated 8 minutes ago

Clear
Clear
95 °F
Feels Like 95 °F
N
7
Wind Variable Wind from South

Today
High -- | Low -- °F
--% Chance of Precip.
Yesterday
High -- | Low -- °F
Precip. -- in
6:34 AM 7:39 PM
Waxing Crescent, 25% visible
Pressure 29.79 in
Visibility 10.0 miles
Clouds Clear
Dew Point 48 °F
Humidity 20%
Rainfall 0.00 in
Snow Depth Not available.
UV 7 out of 12
Pollen 9.20 out of 12
Ozone Good
PM2.5 Moderate
Flu Activity Not available.
METAR KEDU 302215Z AUTO 19006KT 10SM CLR 35/09 A2979 RMK AO1

More Conditions Fewer Conditions

Pressure 29.79 in
Visibility 10.0 miles
Clouds Clear
Dew Point 48 °F
Humidity 20%
Rainfall 0.00 in
Snow Depth Not available.
UV 7 out of 12
Pollen 9.20 out of 12
Ozone Good
PM2.5 Moderate
Flu Activity Not available.
METAR KEDU 302215Z AUTO 19006KT 10SM CLR 35/09 A2979 RMK AO1

More Conditions Fewer Conditions

10-Day Weather Forecast

Almanac

Astronomy

Aug. 30, 2014 Rise Set
Actual Time 6:34 AM PDT 7:39 PM PDT
Civil Twilight 6:07 AM PDT 8:07 PM PDT
Nautical Twilight 5:35 AM PDT 8:39 PM PDT
Astronomical Twilight 5:01 AM PDT 9:13 PM PDT
Moon 11:23 AM PDT 10:22 PM PDT
Length of Visible Light 13h 59m
Length of Day
13h 04m
Tomorrow will be 2m 22s shorter.
Waxing Crescent, 25% of the Moon is Illuminated
Today
Waxing Crescent
Sep 2
First Quarter
Sep 8
Full
Sep 15
Last Quarter
Sep 24
New

Today's Extremes

State Highs State Lows

Community

WunderPhotos

Upload Photos

1,748,657 photos uploaded!

WunderBlogs® & News

Nearby

Air Quality

  Air Quality AQ Index Pollutant
Yesterday Good
PM2.5
Yesterday Good
OZONE
Current Moderate
PM2.5
Current Good
OZONE
Saturday Good
OZONE
Sunday Good
OZONE
Monday Moderate
OZONE
Tuesday Good
OZONE
Wednesday Good
OZONE
Thursday Good
OZONE

Snow Depth

Station Depth Elevation
Echo Peak 0 in 7800 ft
Rubicon #2 0 in 7500 ft
CSS Lab 2 in 6900 ft
Fallen Leaf 0 in 6300 ft
Leavitt Meadows 1 in 7200 ft

Earthquake Activity

City Distance Mag. Time & Date
Ridgemark, California 122 miles 3.4 4:32 PM PDT
2014-08-29
The Geysers, California 61 miles 2.7 2:53 PM PDT
2014-08-29
Ridgemark, California 122 miles 3.0 2:44 PM PDT
2014-08-29
Minimum magnitude displayed is 2.5.

Coastal Water Temperatures

Place Temperature
San Francisco, CA 66.0 °F
Richmond, CA 68.0 °F
Port Chicago, CA 71.1 °F

Nearby Weather Stations